Time;durP1;ratioP1;P1;durP2;ratioP2;P2;SDS_P1;SDS_P2;PMS_P1;PMS_P2;Temp;Humidity;BMP_temperature;BMP_pressure;BME280_temperature;BME280_humidity;BME280_pressure;Samples;Min_cycle;Max_cycle;Signal;HPM_P1;HPM_P2
2021/04/21 00:02:21;;;;;;;10.98;8.28;;;;;;;8.12;82.35;99019.70;1750811;82;21187;-65
2021/04/21 00:04:54;;;;;;;11.05;9.80;;;;;;;8.10;82.40;99018.64;1738146;82;21220;-67
2021/04/21 00:07:35;;;;;;;11.35;8.15;;;;;;;8.08;82.49;99015.39;1720818;83;21577;-66
2021/04/21 00:10:08;;;;;;;9.00;7.03;;;;;;;8.04;82.61;99020.97;1722136;83;21262;-62
2021/04/21 00:12:36;;;;;;;9.05;7.33;;;;;;;8.02;82.83;99025.75;1721057;83;21037;-64
2021/04/21 00:15:09;;;;;;;9.73;8.40;;;;;;;8.03;82.88;99023.36;1698958;83;21028;-64
2021/04/21 00:17:39;;;;;;;10.15;7.58;;;;;;;8.02;82.91;99023.07;1718367;82;21048;-64
2021/04/21 00:20:09;;;;;;;11.48;7.97;;;;;;;8.04;82.89;99021.49;1735483;82;21139;-63
2021/04/21 00:22:37;;;;;;;13.03;7.87;;;;;;;8.02;82.79;99020.39;1751123;81;21202;-65
2021/04/21 00:25:08;;;;;;;9.65;8.03;;;;;;;7.98;82.80;99015.27;1748540;82;21561;-65
2021/04/21 00:27:37;;;;;;;10.80;8.53;;;;;;;7.95;82.91;99018.98;1751323;81;21140;-63
2021/04/21 00:30:08;;;;;;;10.30;6.90;;;;;;;7.92;82.98;99018.92;1755103;81;21664;-62
2021/04/21 00:32:48;;;;;;;9.03;7.45;;;;;;;7.90;82.99;99023.73;1755194;81;21116;-63
2021/04/21 00:35:21;;;;;;;9.90;7.65;;;;;;;7.91;83.04;99033.39;1753922;81;21202;-62
2021/04/21 00:37:49;;;;;;;10.70;7.90;;;;;;;7.88;82.96;99023.16;1705208;84;21128;-63
2021/04/21 00:40:22;;;;;;;9.60;7.72;;;;;;;7.85;82.99;99022.33;1725368;82;21642;-66
2021/04/21 00:42:58;;;;;;;9.80;8.55;;;;;;;7.83;83.06;99031.13;1732160;82;21133;-62
2021/04/21 00:45:45;;;;;;;7.55;6.78;;;;;;;7.81;83.17;99027.38;1725205;81;21074;-62
2021/04/21 00:48:47;;;;;;;9.28;8.03;;;;;;;7.82;83.21;99026.30;1714053;82;21230;-63
2021/04/21 00:51:21;;;;;;;9.20;6.62;;;;;;;7.81;83.19;99035.94;1726240;81;21600;-63
2021/04/21 00:53:53;;;;;;;8.55;7.20;;;;;;;7.75;83.35;99035.05;1727474;81;21625;-63
2021/04/21 00:56:35;;;;;;;9.83;8.53;;;;;;;7.71;83.45;99033.13;1710252;82;21176;-64
2021/04/21 00:59:26;;;;;;;10.27;8.50;;;;;;;7.68;83.68;99032.26;1679562;84;21205;-63
2021/04/21 01:01:54;;;;;;;12.63;8.38;;;;;;;7.70;83.74;99029.62;1750493;81;21306;-63
2021/04/21 01:04:24;;;;;;;10.25;8.13;;;;;;;7.72;83.73;99030.17;1722124;82;21240;-62
2021/04/21 01:06:54;;;;;;;8.38;7.20;;;;;;;7.70;83.71;99026.14;1707291;82;21027;-60
2021/04/21 01:09:23;;;;;;;10.03;9.00;;;;;;;7.68;83.79;99030.92;1705099;84;21178;-64
2021/04/21 01:12:01;;;;;;;10.65;8.25;;;;;;;7.64;83.84;99031.95;1730568;82;21177;-60
2021/04/21 01:14:37;;;;;;;9.20;8.00;;;;;;;7.61;83.92;99027.10;1675021;83;22208;-62
2021/04/21 01:17:08;;;;;;;11.03;7.78;;;;;;;7.61;84.07;99025.77;1720096;82;21653;-61
2021/04/21 01:19:54;;;;;;;12.20;9.10;;;;;;;7.60;84.20;99020.13;1690632;84;21162;-62
2021/04/21 01:22:45;;;;;;;8.78;7.25;;;;;;;7.59;84.24;99027.86;1705116;84;21150;-62
2021/04/21 01:25:49;;;;;;;10.13;8.18;;;;;;;7.59;84.23;99022.52;1683616;82;21201;-66
2021/04/21 01:28:23;;;;;;;11.08;8.33;;;;;;;7.57;84.19;99025.98;1701737;84;21288;-64
2021/04/21 01:30:51;;;;;;;10.05;8.43;;;;;;;7.56;84.21;99034.24;1709787;83;21173;-63
2021/04/21 01:33:21;;;;;;;14.25;8.70;;;;;;;7.58;84.25;99034.27;1723240;82;21564;-64
2021/04/21 01:35:57;;;;;;;10.98;7.90;;;;;;;7.60;84.20;99029.48;1700147;84;21157;-61
2021/04/21 01:38:24;;;;;;;10.65;8.50;;;;;;;7.61;84.19;99032.45;1679414;84;21576;-60
2021/04/21 01:41:01;;;;;;;12.00;8.23;;;;;;;7.61;84.07;99032.98;1698282;83;21215;-64
2021/04/21 01:43:38;;;;;;;8.28;7.20;;;;;;;7.61;84.03;99032.45;1732269;82;21192;-62
2021/04/21 01:46:09;;;;;;;12.35;8.80;;;;;;;7.57;84.07;99034.01;1733913;82;21115;-62
2021/04/21 01:48:38;;;;;;;10.23;8.65;;;;;;;7.54;84.12;99036.34;1703580;83;22165;-62
2021/04/21 01:51:25;;;;;;;11.38;9.68;;;;;;;7.53;84.21;99040.87;1709252;82;21149;-65
2021/04/21 01:53:56;;;;;;;10.13;8.65;;;;;;;7.52;84.33;99040.63;1703493;83;21076;-63
2021/04/21 01:56:38;;;;;;;9.03;8.13;;;;;;;7.53;84.31;99045.45;1699814;84;21173;-64
2021/04/21 01:59:23;;;;;;;8.30;7.25;;;;;;;7.51;84.30;99043.01;1709422;82;21219;-63
2021/04/21 02:01:59;;;;;;;12.73;9.33;;;;;;;7.49;84.33;99045.63;1712697;82;21192;-67
2021/04/21 02:04:52;;;;;;;11.50;9.38;;;;;;;7.48;84.39;99039.50;1712303;82;21164;-62
2021/04/21 02:07:57;;;;;;;14.05;9.50;;;;;;;7.47;84.50;99041.89;1726625;82;21784;-63
2021/04/21 02:11:00;;;;;;;15.83;9.40;;;;;;;7.47;84.60;99046.42;1706959;84;21181;-63
2021/04/21 02:14:17;;;;;;;11.22;8.93;;;;;;;7.45;84.71;99044.80;1752670;81;21049;-62
2021/04/21 02:17:26;;;;;;;12.20;9.08;;;;;;;7.45;84.77;99049.33;1751116;82;21594;-64
2021/04/21 02:20:03;;;;;;;10.60;9.48;;;;;;;7.44;84.90;99050.38;1751048;81;21149;-62
2021/04/21 02:22:43;;;;;;;9.25;8.30;;;;;;;7.44;85.01;99053.06;1750486;81;22809;-63
2021/04/21 02:25:51;;;;;;;11.57;9.35;;;;;;;7.46;85.09;99056.31;1748277;82;21624;-63
2021/04/21 02:28:44;;;;;;;10.08;8.98;;;;;;;7.48;85.03;99056.08;1746273;81;21123;-62
2021/04/21 02:31:19;;;;;;;10.55;8.63;;;;;;;7.44;85.12;99057.88;1679234;84;21174;-63
2021/04/21 02:34:11;;;;;;;10.75;7.67;;;;;;;7.41;85.24;99066.41;1704985;84;21172;-63
2021/04/21 02:37:12;;;;;;;12.63;9.65;;;;;;;7.42;85.33;99044.48;1684301;82;21199;-64
2021/04/21 02:40:16;;;;;;;12.20;8.85;;;;;;;7.42;85.40;99054.66;1725211;82;21197;-67
2021/04/21 02:43:19;;;;;;;10.35;9.35;;;;;;;7.42;85.47;99054.66;1699136;83;21220;-63
2021/04/21 02:46:00;;;;;;;12.80;9.88;;;;;;;7.42;85.50;99053.84;1695293;82;21192;-63
2021/04/21 02:48:58;;;;;;;14.20;9.35;;;;;;;7.41;85.60;99057.57;1709667;82;21153;-63
2021/04/21 02:52:01;;;;;;;13.30;9.10;;;;;;;7.41;85.64;99064.26;1726531;82;22207;-62
2021/04/21 02:54:51;;;;;;;17.77;10.95;;;;;;;7.43;85.65;99059.48;1720586;82;21058;-61
2021/04/21 02:57:49;;;;;;;13.13;9.83;;;;;;;7.47;85.65;99063.81;1725118;82;21998;-63
2021/04/21 03:00:32;;;;;;;10.25;8.55;;;;;;;7.47;85.47;99063.29;1718761;82;21172;-63
2021/04/21 03:03:31;;;;;;;12.85;8.48;;;;;;;7.48;85.39;99068.93;1712911;83;21181;-65
2021/04/21 03:06:09;;;;;;;12.70;8.68;;;;;;;7.50;85.34;99074.02;1710789;83;22631;-63
2021/04/21 03:08:51;;;;;;;12.47;9.00;;;;;;;7.49;85.26;99078.55;1695085;83;21120;-62
2021/04/21 03:11:25;;;;;;;15.00;10.03;;;;;;;7.47;85.28;99079.34;1734181;82;21147;-63
2021/04/21 03:14:05;;;;;;;12.07;10.75;;;;;;;7.47;85.36;99079.86;1734516;82;21171;-63
2021/04/21 03:16:39;;;;;;;13.18;9.85;;;;;;;7.47;85.35;99082.54;1706576;82;21131;-64
2021/04/21 03:19:08;;;;;;;14.53;9.83;;;;;;;7.48;85.39;99082.83;1728020;82;21214;-64
2021/04/21 03:21:42;;;;;;;13.15;9.10;;;;;;;7.49;85.38;99087.91;1717507;83;21146;-63
2021/04/21 03:24:17;;;;;;;10.40;8.75;;;;;;;7.49;85.31;99096.47;1697789;82;21143;-64
2021/04/21 03:26:50;;;;;;;9.60;8.38;;;;;;;7.46;85.29;99099.12;1702958;82;21207;-63
2021/04/21 03:29:29;;;;;;;12.00;9.33;;;;;;;7.44;85.36;99094.00;1729513;83;21116;-65
2021/04/21 03:31:59;;;;;;;14.18;10.43;;;;;;;7.45;85.40;99101.50;1728934;82;21187;-64
2021/04/21 03:34:28;;;;;;;11.53;9.30;;;;;;;7.43;85.32;99099.06;1697540;83;21184;-63
2021/04/21 03:36:56;;;;;;;14.28;9.95;;;;;;;7.44;85.29;99098.53;1728885;82;21136;-64
2021/04/21 03:39:24;;;;;;;12.18;9.53;;;;;;;7.43;85.30;99100.95;1725536;81;21204;-64
2021/04/21 03:41:52;;;;;;;11.88;9.63;;;;;;;7.45;85.27;99113.55;1724715;81;21185;-62
2021/04/21 03:44:20;;;;;;;13.68;10.40;;;;;;;7.45;85.23;99109.53;1704315;82;21218;-62
2021/04/21 03:46:49;;;;;;;12.35;10.43;;;;;;;7.44;85.29;99115.40;1730431;82;21610;-65
2021/04/21 03:49:17;;;;;;;13.72;9.33;;;;;;;7.47;85.32;99107.95;1696710;82;21214;-62
2021/04/21 03:51:45;;;;;;;9.15;7.97;;;;;;;7.50;85.28;99117.63;1759152;81;21647;-68
2021/04/21 03:54:13;;;;;;;10.38;8.93;;;;;;;7.51;85.07;99115.25;1759102;81;21550;-62
2021/04/21 03:56:42;;;;;;;11.65;9.45;;;;;;;7.49;84.87;99117.34;1714457;83;21376;-63
2021/04/21 03:59:10;;;;;;;12.50;10.35;;;;;;;7.43;84.95;99112.44;1699938;82;21605;-62
2021/04/21 04:01:38;;;;;;;10.35;9.28;;;;;;;7.39;85.10;99115.32;1723329;82;21200;-63
2021/04/21 04:04:07;;;;;;;12.73;9.83;;;;;;;7.43;85.24;99122.36;1733222;82;21146;-63
2021/04/21 04:06:41;;;;;;;10.45;9.43;;;;;;;7.43;85.19;99125.03;1735023;82;21176;-62
2021/04/21 04:09:10;;;;;;;13.00;10.40;;;;;;;7.46;85.26;99129.88;1710908;82;21170;-66
2021/04/21 04:11:44;;;;;;;11.03;9.90;;;;;;;7.48;85.06;99133.66;1717628;82;21656;-63
2021/04/21 04:14:17;;;;;;;11.57;9.00;;;;;;;7.46;84.98;99139.25;1728953;82;21568;-63
2021/04/21 04:16:46;;;;;;;9.58;8.45;;;;;;;7.44;84.98;99134.66;1748379;81;21161;-65
2021/04/21 04:19:15;;;;;;;9.05;8.03;;;;;;;7.41;84.95;99141.31;1726814;83;21602;-62
2021/04/21 04:21:45;;;;;;;9.75;8.38;;;;;;;7.40;85.02;99148.23;1707662;84;23734;-63
2021/04/21 04:24:15;;;;;;;11.65;9.20;;;;;;;7.43;85.03;99151.78;1749396;81;21419;-62
2021/04/21 04:26:43;;;;;;;9.55;8.65;;;;;;;7.45;84.96;99151.00;1733693;81;21176;-62
2021/04/21 04:29:12;;;;;;;9.28;7.80;;;;;;;7.48;84.92;99159.08;1755301;81;21761;-62
2021/04/21 04:31:40;;;;;;;9.73;8.75;;;;;;;7.47;84.69;99152.91;1724193;81;21150;-64
2021/04/21 04:34:09;;;;;;;9.38;8.45;;;;;;;7.45;84.60;99151.00;1741963;82;22238;-60
2021/04/21 04:36:41;;;;;;;9.90;8.75;;;;;;;7.41;84.62;99158.70;1724011;81;21206;-62
2021/04/21 04:39:09;;;;;;;12.63;9.35;;;;;;;7.41;84.69;99161.38;1722967;81;21184;-63
2021/04/21 04:41:37;;;;;;;11.45;8.98;;;;;;;7.43;84.70;99160.59;1685810;81;21177;-63
2021/04/21 04:44:06;;;;;;;11.05;9.40;;;;;;;7.44;84.73;99161.41;1737883;82;21181;-62
2021/04/21 04:46:39;;;;;;;11.00;9.55;;;;;;;7.45;84.72;99165.19;1737950;82;22165;-63
2021/04/21 04:49:09;;;;;;;10.15;9.08;;;;;;;7.45;84.65;99169.72;1737778;82;21149;-62
2021/04/21 04:51:38;;;;;;;13.25;10.98;;;;;;;7.45;84.68;99171.88;1737911;82;21129;-64
2021/04/21 04:54:06;;;;;;;12.37;10.08;;;;;;;7.46;84.68;99175.36;1704340;83;21136;-63
2021/04/21 04:56:36;;;;;;;12.00;10.70;;;;;;;7.48;84.72;99173.27;1730771;81;21196;-64
2021/04/21 04:59:08;;;;;;;11.60;9.78;;;;;;;7.52;84.57;99181.62;1754079;81;21214;-63
2021/04/21 05:01:57;;;;;;;11.53;10.32;;;;;;;7.56;84.37;99183.56;1725651;81;21102;-62
2021/04/21 05:05:00;;;;;;;12.93;10.25;;;;;;;7.55;84.11;99179.26;1725163;81;21034;-66
2021/04/21 05:07:58;;;;;;;10.32;9.23;;;;;;;7.55;84.13;99179.26;1755209;81;21292;-66
2021/04/21 05:10:30;;;;;;;12.93;10.50;;;;;;;7.55;84.10;99179.26;1755160;81;21568;-66
2021/04/21 05:13:04;;;;;;;14.43;11.05;;;;;;;7.53;84.08;99180.02;1755173;81;21292;-69
2021/04/21 05:15:52;;;;;;;12.33;10.35;;;;;;;7.54;84.20;99185.66;1755155;81;21177;-62
2021/04/21 05:18:35;;;;;;;12.10;10.28;;;;;;;7.58;84.02;99188.13;1742764;80;21195;-64
2021/04/21 05:21:16;;;;;;;;;;;;;;;7.60;83.91;99182.02;1736844;81;21609;-66
2021/04/21 05:24:20;;;;;;;10.85;9.70;;;;;;;7.62;83.73;99192.50;1736205;82;20232;-63
2021/04/21 05:27:25;;;;;;;11.08;9.23;;;;;;;7.61;83.57;99190.86;1720816;82;21187;-63
2021/04/21 05:30:22;;;;;;;10.23;9.08;;;;;;;7.60;83.61;99195.92;1753249;81;21185;-73
2021/04/21 05:33:25;;;;;;;18.55;9.78;;;;;;;7.61;83.56;99199.70;1756205;81;21196;-65
2021/04/21 05:36:25;;;;;;;14.00;10.43;;;;;;;7.63;83.50;99200.78;1756237;81;21156;-62
2021/04/21 05:39:30;;;;;;;11.70;9.50;;;;;;;7.67;83.48;99203.28;1755546;81;21149;-66
2021/04/21 05:42:40;;;;;;;12.00;9.20;;;;;;;7.65;83.06;99206.19;1784119;80;21195;-65
2021/04/21 05:45:43;;;;;;;14.78;10.70;;;;;;;7.68;83.02;99213.72;1758103;81;21994;-64
2021/04/21 05:48:52;;;;;;;15.23;12.10;;;;;;;7.66;82.80;99212.36;1758313;81;21220;-66
2021/04/21 05:51:45;;;;;;;12.40;10.88;;;;;;;7.68;82.84;99216.41;1758377;81;21804;-67
2021/04/21 05:55:10;;;;;;;10.35;8.95;;;;;;;7.73;82.83;99223.18;1758502;81;21120;-66
2021/04/21 05:58:16;;;;;;;12.25;10.68;;;;;;;7.82;82.52;99222.24;1744569;81;21188;-63
2021/04/21 06:01:19;;;;;;;11.20;8.48;;;;;;;7.87;81.69;99225.00;1754892;81;21137;-64
2021/04/21 06:03:52;;;;;;;12.23;9.13;;;;;;;7.86;81.21;99238.13;1732539;81;21196;-62
2021/04/21 06:06:20;;;;;;;10.08;8.50;;;;;;;7.84;81.29;99233.01;1756467;81;21877;-64
2021/04/21 06:08:50;;;;;;;12.68;9.65;;;;;;;7.84;80.86;99235.69;1756238;81;21419;-62
2021/04/21 06:11:22;;;;;;;13.70;8.83;;;;;;;7.83;80.75;99238.59;1756137;81;22004;-63
2021/04/21 06:13:56;;;;;;;12.03;9.83;;;;;;;7.86;80.82;99248.84;1745416;81;21245;-64
2021/04/21 06:16:25;;;;;;;11.78;8.78;;;;;;;7.89;80.47;99238.97;1727764;83;21453;-68
2021/04/21 06:18:59;;;;;;;13.30;9.93;;;;;;;7.92;80.32;99242.48;1720729;83;21184;-64
2021/04/21 06:21:32;;;;;;;12.78;10.72;;;;;;;7.95;80.22;99238.53;1726721;83;21197;-63
2021/04/21 06:23:59;;;;;;;15.05;11.38;;;;;;;7.97;80.08;99245.77;1736185;82;21186;-62
2021/04/21 06:26:29;;;;;;;12.28;9.68;;;;;;;7.97;80.02;99251.94;1711667;83;21207;-66
2021/04/21 06:29:03;;;;;;;12.07;8.90;;;;;;;8.01;80.03;99250.95;1741701;82;21006;-64
2021/04/21 06:31:43;;;;;;;11.80;9.80;;;;;;;8.05;80.01;99248.88;1715309;82;21146;-63
2021/04/21 06:34:13;;;;;;;10.43;9.30;;;;;;;8.10;79.94;99250.30;1742359;82;21564;-64
2021/04/21 06:36:45;;;;;;;10.20;8.63;;;;;;;8.18;79.74;99259.25;1742411;82;21190;-63
2021/04/21 06:39:16;;;;;;;11.33;8.90;;;;;;;8.26;79.37;99262.03;1737475;81;21047;-62
2021/04/21 06:41:44;;;;;;;11.38;10.18;;;;;;;8.30;79.04;99257.31;1754373;81;21635;-63
2021/04/21 06:44:14;;;;;;;12.33;10.00;;;;;;;8.32;78.92;99265.11;1742702;82;21246;-68
2021/04/21 06:46:42;;;;;;;13.60;9.68;;;;;;;8.38;78.98;99263.33;1714749;82;21242;-66
2021/04/21 06:49:11;;;;;;;16.30;8.93;;;;;;;8.45;78.72;99258.59;1742299;82;21211;-65
2021/04/21 06:51:39;;;;;;;10.80;8.43;;;;;;;8.53;77.74;99255.51;1742349;82;21134;-66
2021/04/21 06:54:07;;;;;;;11.70;10.48;;;;;;;8.60;77.17;99265.50;1733664;82;21168;-64
2021/04/21 06:56:36;;;;;;;10.80;9.38;;;;;;;8.64;76.11;99262.08;1735746;82;21204;-65
2021/04/21 06:59:05;;;;;;;12.28;9.45;;;;;;;8.66;75.71;99273.91;1710070;82;21219;-62
2021/04/21 07:01:33;;;;;;;10.25;9.20;;;;;;;8.67;75.18;99266.16;1740311;82;22798;-66
2021/04/21 07:04:14;;;;;;;13.32;9.80;;;;;;;8.69;74.79;99263.49;1751782;81;21639;-65
2021/04/21 07:06:46;;;;;;;11.10;9.93;;;;;;;8.73;74.80;99265.14;1751722;81;21173;-66
2021/04/21 07:09:17;;;;;;;10.03;8.83;;;;;;;8.77;74.57;99271.66;1719398;83;21239;-66
2021/04/21 07:11:46;;;;;;;11.55;9.85;;;;;;;8.81;74.47;99266.59;1721701;82;21631;-64
2021/04/21 07:14:19;;;;;;;12.23;9.75;;;;;;;8.87;74.42;99261.59;1698360;84;21211;-62
2021/04/21 07:16:52;;;;;;;12.73;9.80;;;;;;;8.94;74.35;99271.06;1705071;84;21169;-64
2021/04/21 07:19:21;;;;;;;;;;;;;;;9.04;74.11;99274.39;1682946;84;21606;-64
2021/04/21 07:21:48;;;;;;;16.30;9.60;;;;;;;9.11;73.75;99289.23;1678627;84;20229;-65
2021/04/21 07:24:18;;;;;;;8.80;7.90;;;;;;;9.17;73.20;99269.98;1705657;82;21660;-62
2021/04/21 07:26:47;;;;;;;11.88;8.35;;;;;;;9.22;72.80;99274.06;1709392;83;21197;-63
2021/04/21 07:29:19;;;;;;;10.18;9.10;;;;;;;9.28;72.46;99274.41;1709772;83;21168;-64
2021/04/21 07:31:47;;;;;;;9.68;8.08;;;;;;;9.32;71.67;99288.95;1698375;83;21132;-64
2021/04/21 07:34:34;;;;;;;10.88;8.08;;;;;;;9.36;70.91;99284.69;1709331;82;21616;-66
2021/04/21 07:37:02;;;;;;;10.48;9.23;;;;;;;9.39;70.56;99284.73;1731716;80;21206;-64
2021/04/21 07:39:37;;;;;;;9.30;7.97;;;;;;;9.45;70.89;99294.44;1776503;80;21430;-66
2021/04/21 07:42:17;;;;;;;9.75;8.70;;;;;;;9.51;70.76;99295.59;1725021;83;21233;-66
2021/04/21 07:44:52;;;;;;;9.65;8.63;;;;;;;9.56;70.46;99292.97;1698290;83;21194;-63
2021/04/21 07:47:21;;;;;;;11.00;9.73;;;;;;;9.62;70.33;99291.97;1725256;83;21151;-64
2021/04/21 07:49:57;;;;;;;10.65;9.00;;;;;;;9.62;69.65;99294.66;1725185;83;21150;-63
2021/04/21 07:52:29;;;;;;;11.43;10.05;;;;;;;9.64;69.86;99291.69;1731953;81;21193;-61
2021/04/21 07:55:15;;;;;;;9.83;8.50;;;;;;;9.76;69.35;99303.63;1733819;82;21128;-66
2021/04/21 07:57:47;;;;;;;12.23;8.58;;;;;;;9.84;68.43;99311.23;1703305;83;21180;-67
2021/04/21 08:00:29;;;;;;;12.20;8.73;;;;;;;9.92;67.68;99305.41;1717887;82;21216;-63
2021/04/21 08:03:00;;;;;;;10.55;8.33;;;;;;;9.98;67.85;99318.62;1691618;83;21227;-63
2021/04/21 08:05:28;;;;;;;11.00;8.90;;;;;;;10.04;67.41;99322.98;1691436;83;21194;-64
2021/04/21 08:08:01;;;;;;;8.78;7.00;;;;;;;10.04;66.51;99312.23;1709957;83;21144;-63
2021/04/21 08:10:32;;;;;;;9.48;8.28;;;;;;;10.07;65.63;99327.83;1695956;82;21192;-64
2021/04/21 08:13:01;;;;;;;12.65;9.40;;;;;;;10.10;65.46;99316.30;1706788;84;21176;-64
2021/04/21 08:15:32;;;;;;;12.58;8.25;;;;;;;10.14;65.71;99320.91;1755361;81;21745;-64
2021/04/21 08:18:12;;;;;;;13.48;8.25;;;;;;;10.19;66.22;99323.67;1742481;82;21252;-62
2021/04/21 08:20:44;;;;;;;11.75;8.33;;;;;;;10.25;66.41;99312.44;1714705;82;21154;-65
2021/04/21 08:23:17;;;;;;;11.93;9.23;;;;;;;10.30;65.02;99325.92;1741259;82;21159;-63
2021/04/21 08:25:48;;;;;;;9.55;7.65;;;;;;;10.34;64.12;99325.68;1742464;82;21012;-62
2021/04/21 08:28:17;;;;;;;12.90;8.88;;;;;;;10.35;64.22;99321.40;1742429;82;21544;-64
2021/04/21 08:30:59;;;;;;;11.12;8.55;;;;;;;10.36;64.42;99320.87;1740781;82;22815;-63
2021/04/21 08:33:33;;;;;;;12.37;8.60;;;;;;;10.43;64.58;99320.09;1695297;83;21199;-64
2021/04/21 08:36:01;;;;;;;9.68;8.33;;;;;;;10.47;64.40;99317.16;1690329;83;21179;-65
2021/04/21 08:38:29;;;;;;;8.95;7.72;;;;;;;10.54;63.65;99322.33;1684129;84;21249;-63
2021/04/21 08:40:58;;;;;;;12.18;8.65;;;;;;;10.62;63.87;99326.69;1677789;84;21680;-64
2021/04/21 08:43:25;;;;;;;8.03;7.33;;;;;;;10.61;62.13;99343.07;1695673;83;21207;-65
2021/04/21 08:45:53;;;;;;;6.28;5.67;;;;;;;10.66;62.05;99326.44;1677454;85;21313;-64
2021/04/21 08:48:21;;;;;;;6.90;5.62;;;;;;;10.71;60.08;99317.06;1699085;84;21674;-66
2021/04/21 08:50:49;;;;;;;5.83;5.20;;;;;;;10.78;57.23;99328.41;1693698;82;21143;-65
2021/04/21 08:53:16;;;;;;;5.87;5.20;;;;;;;10.86;57.42;99321.72;1719219;82;21131;-64
2021/04/21 08:55:44;;;;;;;7.42;6.70;;;;;;;10.92;57.46;99339.52;1737557;82;21976;-63
2021/04/21 08:58:12;;;;;;;6.95;5.17;;;;;;;10.96;57.66;99329.86;1684335;84;21194;-62
2021/04/21 09:00:41;;;;;;;5.65;4.70;;;;;;;11.01;56.75;99316.96;1691712;83;21601;-64
2021/04/21 09:03:10;;;;;;;8.48;6.65;;;;;;;11.05;55.59;99320.74;1709043;84;21173;-61
2021/04/21 09:05:39;;;;;;;8.05;5.22;;;;;;;11.07;56.11;99318.08;1679107;84;21228;-63
2021/04/21 09:08:08;;;;;;;6.55;5.47;;;;;;;11.11;56.37;99313.79;1701414;84;21597;-65
2021/04/21 09:10:38;;;;;;;7.25;6.12;;;;;;;11.19;56.72;99319.19;1710970;82;21061;-63
2021/04/21 09:13:08;;;;;;;6.25;5.28;;;;;;;11.24;56.99;99327.29;1713186;82;21189;-63
2021/04/21 09:15:36;;;;;;;10.20;8.40;;;;;;;11.25;55.47;99328.92;1736266;82;21025;-62
2021/04/21 09:18:04;;;;;;;8.55;5.20;;;;;;;11.23;55.42;99323.79;1732994;82;21131;-66
2021/04/21 09:20:32;;;;;;;5.50;5.00;;;;;;;11.23;55.10;99330.52;1707542;82;21368;-62
2021/04/21 09:23:04;;;;;;;6.80;4.67;;;;;;;11.27;54.53;99332.17;1736248;82;21139;-62
2021/04/21 09:25:38;;;;;;;5.97;5.05;;;;;;;11.31;54.27;99330.03;1713166;82;21207;-66
2021/04/21 09:28:07;;;;;;;6.10;4.70;;;;;;;11.39;53.71;99326.02;1734282;82;21171;-65
2021/04/21 09:30:37;;;;;;;4.83;4.40;;;;;;;11.40;54.01;99321.44;1736584;81;21212;-64
2021/04/21 09:33:06;;;;;;;5.97;5.37;;;;;;;11.47;54.03;99320.11;1732473;81;21551;-63
2021/04/21 09:35:41;;;;;;;7.33;5.90;;;;;;;11.56;54.22;99317.73;1755907;81;21105;-64
2021/04/21 09:38:20;;;;;;;7.17;5.67;;;;;;;11.62;54.00;99322.84;1742641;81;21161;-65
2021/04/21 09:40:54;;;;;;;11.83;5.37;;;;;;;11.69;53.93;99324.77;1751108;81;21246;-62
2021/04/21 09:43:25;;;;;;;8.00;6.75;;;;;;;11.78;53.94;99327.23;1752678;81;21169;-65
2021/04/21 09:46:01;;;;;;;5.35;4.83;;;;;;;11.87;53.68;99338.83;1714937;82;21196;-62
2021/04/21 09:48:38;;;;;;;5.78;4.40;;;;;;;11.93;53.40;99341.81;1726647;82;21162;-63
2021/04/21 09:51:13;;;;;;;5.08;4.58;;;;;;;11.92;51.41;99349.09;1726689;82;21145;-63
2021/04/21 09:53:47;;;;;;;5.17;4.33;;;;;;;11.87;51.46;99348.27;1739684;82;21153;-63
2021/04/21 09:56:20;;;;;;;5.20;4.65;;;;;;;11.78;51.86;99337.20;1751776;81;21161;-62
2021/04/21 09:58:52;;;;;;;;;;;;;;;11.71;52.08;99339.30;1758858;81;21213;-60
2021/04/21 10:01:37;;;;;;;8.63;4.72;;;;;;;11.71;52.42;99336.61;1758190;81;20331;-63
2021/04/21 10:04:25;;;;;;;5.47;4.95;;;;;;;11.72;52.91;99335.03;1743023;81;21133;-63
2021/04/21 10:07:00;;;;;;;7.37;5.15;;;;;;;11.76;53.34;99330.73;1716987;81;21609;-64
2021/04/21 10:09:37;;;;;;;5.03;4.28;;;;;;;11.76;52.47;99321.83;1756066;81;21030;-63
2021/04/21 10:12:21;;;;;;;6.45;4.72;;;;;;;11.76;51.91;99332.61;1756226;81;21224;-64
2021/04/21 10:15:11;;;;;;;6.72;4.70;;;;;;;11.77;51.76;99338.27;1722647;83;21559;-64
2021/04/21 10:17:43;;;;;;;5.42;3.98;;;;;;;11.77;51.58;99335.58;1740473;81;21598;-66
2021/04/21 10:20:15;;;;;;;6.55;4.78;;;;;;;11.77;51.48;99322.11;1730292;82;21121;-64
2021/04/21 10:22:46;;;;;;;6.50;5.03;;;;;;;11.76;51.13;99340.16;1740188;82;21182;-65
2021/04/21 10:25:15;;;;;;;4.15;3.72;;;;;;;11.74;51.59;99335.59;1681996;83;21219;-68
2021/04/21 10:27:44;;;;;;;5.53;4.60;;;;;;;11.76;51.60;99340.69;1697425;83;21172;-64
2021/04/21 10:30:15;;;;;;;5.65;4.50;;;;;;;11.79;51.92;99328.86;1738608;82;21577;-65
2021/04/21 10:32:42;;;;;;;5.03;4.20;;;;;;;11.83;51.80;99322.40;1734399;82;21265;-64
2021/04/21 10:35:12;;;;;;;7.22;4.55;;;;;;;11.88;52.04;99333.19;1731833;82;21152;-64
2021/04/21 10:37:42;;;;;;;4.85;4.28;;;;;;;11.92;51.73;99341.00;1737205;82;21388;-65
2021/04/21 10:40:11;;;;;;;6.30;4.47;;;;;;;11.94;51.83;99336.14;1736661;82;21164;-65
2021/04/21 10:42:52;;;;;;;6.15;4.72;;;;;;;11.94;51.88;99333.44;1711223;82;21270;-63
2021/04/21 10:45:25;;;;;;;5.12;4.62;;;;;;;12.02;52.26;99318.65;1736641;82;21204;-62
2021/04/21 10:47:54;;;;;;;6.10;5.50;;;;;;;12.19;52.42;99326.73;1710723;82;21582;-63
2021/04/21 10:50:45;;;;;;;6.55;5.35;;;;;;;12.32;52.48;99334.03;1737880;82;22687;-64
2021/04/21 10:53:33;;;;;;;5.85;5.35;;;;;;;12.43;52.59;99321.61;1731938;82;21080;-62
2021/04/21 10:56:24;;;;;;;8.35;5.62;;;;;;;12.61;52.39;99321.05;1738312;82;21153;-61
2021/04/21 10:58:55;;;;;;;8.10;5.08;;;;;;;12.80;52.07;99315.11;1738325;82;21135;-63
2021/04/21 11:01:34;;;;;;;4.92;4.47;;;;;;;13.03;51.51;99318.55;1721729;82;21167;-62
2021/04/21 11:04:04;;;;;;;4.90;4.40;;;;;;;13.26;51.08;99321.19;1684338;84;22137;-66
2021/04/21 11:06:42;;;;;;;6.42;4.50;;;;;;;13.42;50.45;99328.16;1677336;85;21079;-65
2021/04/21 11:09:11;;;;;;;6.75;4.30;;;;;;;13.56;49.46;99334.57;1708945;84;21603;-66
2021/04/21 11:11:48;;;;;;;4.55;3.77;;;;;;;13.66;48.60;99336.41;1667677;84;21228;-65
2021/04/21 11:14:49;;;;;;;5.65;4.67;;;;;;;13.74;48.73;99323.11;1750015;82;21100;-69
2021/04/21 11:17:17;;;;;;;7.95;5.37;;;;;;;13.83;48.66;99318.73;1736354;82;22278;-64
2021/04/21 11:19:45;;;;;;;5.05;4.55;;;;;;;13.87;48.55;99324.38;1708602;82;21208;-65
2021/04/21 11:22:27;;;;;;;4.62;4.22;;;;;;;13.91;48.28;99327.59;1718842;83;22232;-70
2021/04/21 11:25:21;;;;;;;4.62;4.12;;;;;;;13.88;48.06;99324.65;1716220;83;21041;-70
2021/04/21 11:27:51;;;;;;;5.97;4.03;;;;;;;13.83;47.68;99322.79;1719100;82;35955;-66
2021/04/21 11:30:41;;;;;;;4.87;4.35;;;;;;;13.83;47.93;99318.73;1696127;83;21873;-66
2021/04/21 11:33:09;;;;;;;5.30;4.80;;;;;;;13.82;47.95;99321.70;1754366;80;21132;-67
2021/04/21 11:35:37;;;;;;;4.95;4.30;;;;;;;13.95;48.00;99317.86;1750080;81;21180;-66
2021/04/21 11:38:05;;;;;;;5.90;4.37;;;;;;;14.14;47.72;99319.34;1745959;81;21162;-66
2021/04/21 11:40:36;;;;;;;10.65;5.37;;;;;;;14.29;47.39;99315.71;1728638;83;21179;-65
2021/04/21 11:43:17;;;;;;;4.97;3.85;;;;;;;14.47;47.05;99315.04;1728585;83;21216;-65
2021/04/21 11:45:46;;;;;;;6.20;3.65;;;;;;;14.60;46.42;99322.48;1705510;81;21177;-67
2021/04/21 11:48:18;;;;;;;6.40;3.98;;;;;;;14.74;46.39;99332.09;1733280;82;21164;-68
2021/04/21 11:50:48;;;;;;;4.90;3.27;;;;;;;14.92;45.20;99312.41;1733032;82;21132;-70
2021/04/21 11:53:20;;;;;;;3.87;3.52;;;;;;;15.02;44.61;99311.49;1738675;82;21157;-67
2021/04/21 11:55:56;;;;;;;3.87;3.58;;;;;;;14.99;44.60;99326.43;1738036;82;21170;-67
2021/04/21 11:58:33;;;;;;;4.08;3.45;;;;;;;14.90;45.53;99323.28;1742722;82;21036;-68
2021/04/21 12:01:09;;;;;;;4.85;4.22;;;;;;;14.79;45.55;99326.63;1717032;82;21178;-67
2021/04/21 12:03:40;;;;;;;8.68;4.08;;;;;;;14.67;45.75;99327.03;1732177;82;21132;-66
2021/04/21 12:06:16;;;;;;;3.45;3.15;;;;;;;14.58;45.95;99317.89;1713256;83;21151;-65
2021/04/21 12:08:49;;;;;;;4.20;3.80;;;;;;;14.60;45.70;99308.14;1717397;82;21215;-62
2021/04/21 12:11:27;;;;;;;5.22;3.72;;;;;;;14.58;45.55;99311.12;1709907;82;21200;-65
2021/04/21 12:13:54;;;;;;;4.58;4.17;;;;;;;14.55;45.49;99313.61;1739623;82;21180;-67
2021/04/21 12:16:25;;;;;;;4.87;3.42;;;;;;;14.55;45.58;99307.65;1742625;82;22004;-66
2021/04/21 12:18:55;;;;;;;4.28;3.90;;;;;;;14.53;45.41;99307.69;1716838;82;21150;-65